Time;durP1;ratioP1;P1;durP2;ratioP2;P2;SDS_P1;SDS_P2;PMS_P1;PMS_P2;Temp;Humidity;BMP_temperature;BMP_pressure;BME280_temperature;BME280_humidity;BME280_pressure;Samples;Min_cycle;Max_cycle;Signal;HPM_P1;HPM_P2
2023/06/15 00:01:50;;;;;;;0.20;0.10;;;;;;;;;;5050067;28;20040;-82
2023/06/15 00:04:17;;;;;;;0.20;0.10;;;;;;;;;;5030299;28;20551;-83
2023/06/15 00:06:43;;;;;;;0.20;0.10;;;;;;;;;;5043890;28;20090;-80
2023/06/15 00:09:09;;;;;;;0.20;0.10;;;;;;;;;;5035784;28;20128;-80
2023/06/15 00:11:35;;;;;;;0.20;0.17;;;;;;;;;;5034284;28;20688;-81
2023/06/15 00:14:01;;;;;;;0.32;0.30;;;;;;;;;;5042059;28;20511;-82
2023/06/15 00:16:31;;;;;;;0.20;0.20;;;;;;;;;;5031989;28;20079;-83
2023/06/15 00:19:01;;;;;;;0.20;0.10;;;;;;;;;;5031378;28;20032;-81
2023/06/15 00:21:28;;;;;;;0.20;0.10;;;;;;;;;;5034929;28;20033;-81
2023/06/15 00:23:54;;;;;;;0.20;0.10;;;;;;;;;;5034475;28;20048;-81
2023/06/15 00:26:20;;;;;;;0.20;0.10;;;;;;;;;;5028393;28;20039;-84
2023/06/15 00:28:46;;;;;;;0.20;0.10;;;;;;;;;;5038285;28;20033;-81
2023/06/15 00:31:12;;;;;;;0.20;0.10;;;;;;;;;;5034500;28;20042;-82
2023/06/15 00:33:38;;;;;;;0.20;0.20;;;;;;;;;;5032281;28;20040;-81
2023/06/15 00:36:07;;;;;;;0.20;0.10;;;;;;;;;;5031460;28;20048;-82
2023/06/15 00:38:33;;;;;;;0.20;0.10;;;;;;;;;;5022393;28;20041;-81
2023/06/15 00:40:59;;;;;;;0.20;0.15;;;;;;;;;;5031828;28;20033;-83
2023/06/15 00:43:25;;;;;;;0.20;0.10;;;;;;;;;;5030550;28;20045;-82
2023/06/15 00:45:51;;;;;;;0.75;0.20;;;;;;;;;;5027941;28;20053;-82
2023/06/15 00:48:17;;;;;;;0.20;0.10;;;;;;;;;;5027180;28;20041;-80
2023/06/15 00:50:44;;;;;;;0.20;0.10;;;;;;;;;;5046929;28;20041;-80
2023/06/15 00:53:10;;;;;;;0.20;0.10;;;;;;;;;;5045793;28;20033;-81
2023/06/15 00:55:36;;;;;;;0.20;0.10;;;;;;;;;;5022616;28;20490;-81
2023/06/15 00:58:03;;;;;;;0.20;0.10;;;;;;;;;;5015233;28;20048;-82
2023/06/15 01:00:32;;;;;;;0.20;0.10;;;;;;;;;;5027873;28;20099;-82
2023/06/15 01:02:59;;;;;;;0.20;0.20;;;;;;;;;;5022150;28;20047;-80
2023/06/15 01:05:25;;;;;;;0.20;0.10;;;;;;;;;;5023815;28;20103;-81
2023/06/15 01:07:52;;;;;;;0.20;0.10;;;;;;;;;;5030350;28;20044;-82
2023/06/15 01:10:20;;;;;;;0.20;0.10;;;;;;;;;;5011164;28;20040;-81
2023/06/15 01:12:50;;;;;;;0.80;0.65;;;;;;;;;;5014597;28;20784;-81
2023/06/15 01:15:17;;;;;;;0.20;0.10;;;;;;;;;;5027801;28;20046;-81
2023/06/15 01:17:45;;;;;;;0.20;0.10;;;;;;;;;;5025635;28;20034;-81
2023/06/15 01:20:21;;;;;;;0.20;0.10;;;;;;;;;;5027004;28;20029;-84
2023/06/15 01:23:10;;;;;;;0.40;0.20;;;;;;;;;;5022917;28;20138;-81
2023/06/15 01:25:53;;;;;;;0.20;0.20;;;;;;;;;;5027742;28;20568;-81
2023/06/15 01:28:20;;;;;;;0.20;0.10;;;;;;;;;;5027920;28;20038;-82
2023/06/15 01:30:54;;;;;;;0.20;0.10;;;;;;;;;;5027258;28;20056;-81
2023/06/15 01:33:21;;;;;;;0.20;0.15;;;;;;;;;;5028108;28;20402;-82
2023/06/15 01:35:47;;;;;;;0.50;0.40;;;;;;;;;;5031756;28;20066;-80
2023/06/15 01:38:14;;;;;;;0.20;0.10;;;;;;;;;;5043496;28;20041;-81
2023/06/15 01:40:42;;;;;;;0.20;0.10;;;;;;;;;;5030358;28;21346;-82
2023/06/15 01:43:13;;;;;;;0.20;0.10;;;;;;;;;;5018817;28;20049;-82
2023/06/15 01:45:40;;;;;;;0.20;0.10;;;;;;;;;;5015858;28;20037;-82
2023/06/15 01:48:07;;;;;;;0.20;0.10;;;;;;;;;;5031692;28;20152;-82
2023/06/15 01:50:34;;;;;;;0.20;0.10;;;;;;;;;;5035174;28;20104;-81
2023/06/15 01:53:00;;;;;;;0.20;0.10;;;;;;;;;;5024253;28;21764;-80
2023/06/15 01:55:26;;;;;;;0.20;0.10;;;;;;;;;;5020781;28;20044;-80
2023/06/15 01:57:53;;;;;;;0.20;0.10;;;;;;;;;;5021413;28;20033;-81
2023/06/15 02:00:19;;;;;;;0.20;0.10;;;;;;;;;;5031447;28;20585;-83
2023/06/15 02:02:45;;;;;;;0.20;0.10;;;;;;;;;;5024108;28;20044;-81
2023/06/15 02:05:11;;;;;;;0.20;0.10;;;;;;;;;;5014894;28;20045;-82
2023/06/15 02:07:37;;;;;;;0.20;0.17;;;;;;;;;;5015324;28;20037;-82
2023/06/15 02:10:03;;;;;;;0.20;0.17;;;;;;;;;;5042912;28;20040;-81
2023/06/15 02:12:30;;;;;;;0.20;0.10;;;;;;;;;;5020337;28;20535;-82
2023/06/15 02:14:57;;;;;;;0.20;0.10;;;;;;;;;;5013652;28;20040;-84
2023/06/15 02:17:30;;;;;;;0.20;0.20;;;;;;;;;;5015216;28;20041;-81
2023/06/15 02:19:56;;;;;;;0.20;0.17;;;;;;;;;;5022392;28;20049;-81
2023/06/15 02:22:22;;;;;;;0.68;0.45;;;;;;;;;;5026192;28;20485;-81
2023/06/15 02:24:48;;;;;;;0.20;0.10;;;;;;;;;;5020586;28;20465;-82
2023/06/15 02:27:14;;;;;;;0.20;0.15;;;;;;;;;;5027568;28;20045;-82
2023/06/15 02:29:40;;;;;;;0.20;0.10;;;;;;;;;;5026015;28;20044;-81
2023/06/15 02:32:07;;;;;;;0.20;0.10;;;;;;;;;;5024964;28;20036;-81
2023/06/15 02:34:34;;;;;;;0.20;0.10;;;;;;;;;;5026767;28;20037;-83
2023/06/15 02:37:00;;;;;;;0.47;0.25;;;;;;;;;;5027276;28;21168;-81
2023/06/15 02:39:26;;;;;;;0.20;0.10;;;;;;;;;;5013646;28;20040;-82
2023/06/15 02:41:52;;;;;;;0.20;0.10;;;;;;;;;;5020912;28;20783;-81
2023/06/15 02:44:18;;;;;;;0.20;0.10;;;;;;;;;;5022401;28;20048;-81
2023/06/15 02:46:44;;;;;;;0.20;0.10;;;;;;;;;;5027529;28;20044;-82
2023/06/15 02:49:10;;;;;;;0.73;0.35;;;;;;;;;;5012036;28;20056;-81
2023/06/15 02:51:37;;;;;;;0.20;0.10;;;;;;;;;;5025332;28;20044;-81
2023/06/15 02:54:04;;;;;;;0.20;0.10;;;;;;;;;;5038486;28;20045;-81
2023/06/15 02:56:30;;;;;;;0.20;0.10;;;;;;;;;;5024029;28;21879;-81
2023/06/15 02:58:57;;;;;;;0.20;0.10;;;;;;;;;;5010633;28;20033;-81
2023/06/15 03:01:23;;;;;;;0.20;0.20;;;;;;;;;;5026691;28;20134;-81
2023/06/15 03:03:50;;;;;;;0.20;0.10;;;;;;;;;;5019414;28;20091;-81
2023/06/15 03:06:16;;;;;;;0.20;0.10;;;;;;;;;;5026609;28;20053;-81
2023/06/15 03:08:43;;;;;;;0.20;0.10;;;;;;;;;;5013185;28;20048;-81
2023/06/15 03:11:09;;;;;;;0.47;0.20;;;;;;;;;;5027769;28;20049;-82
2023/06/15 03:13:35;;;;;;;0.20;0.20;;;;;;;;;;5032273;28;20037;-81
2023/06/15 03:16:02;;;;;;;0.25;0.15;;;;;;;;;;5046008;28;21084;-81
2023/06/15 03:18:31;;;;;;;0.20;0.10;;;;;;;;;;5030047;28;20120;-80
2023/06/15 03:20:57;;;;;;;0.20;0.20;;;;;;;;;;5030618;28;20037;-80
2023/06/15 03:23:24;;;;;;;0.20;0.10;;;;;;;;;;5032020;28;20041;-82
2023/06/15 03:25:51;;;;;;;0.20;0.10;;;;;;;;;;5027251;28;20457;-81
2023/06/15 03:28:17;;;;;;;0.20;0.15;;;;;;;;;;5026144;28;20053;-80
2023/06/15 03:30:46;;;;;;;0.20;0.10;;;;;;;;;;5029552;28;20049;-82
2023/06/15 03:33:13;;;;;;;0.85;0.55;;;;;;;;;;5025642;28;20036;-82
2023/06/15 03:35:39;;;;;;;0.20;0.10;;;;;;;;;;5030041;28;20279;-82
2023/06/15 03:38:06;;;;;;;0.20;0.10;;;;;;;;;;5028989;28;20102;-81
2023/06/15 03:40:37;;;;;;;0.20;0.10;;;;;;;;;;5031838;28;20057;-80
2023/06/15 03:43:03;;;;;;;0.20;0.15;;;;;;;;;;5028299;28;20041;-82
2023/06/15 03:45:29;;;;;;;0.20;0.20;;;;;;;;;;5028804;28;20045;-81
2023/06/15 03:47:55;;;;;;;0.28;0.28;;;;;;;;;;5034281;28;20037;-80
2023/06/15 03:50:21;;;;;;;0.20;0.10;;;;;;;;;;5024791;28;20037;-82
2023/06/15 03:52:47;;;;;;;0.28;0.20;;;;;;;;;;5030650;28;20438;-83
2023/06/15 03:55:13;;;;;;;0.20;0.10;;;;;;;;;;5010819;28;20132;-82
2023/06/15 03:57:40;;;;;;;0.20;0.10;;;;;;;;;;5026645;28;20048;-83
2023/06/15 04:00:07;;;;;;;0.20;0.10;;;;;;;;;;5026410;28;20122;-81
2023/06/15 04:02:33;;;;;;;0.20;0.20;;;;;;;;;;5025665;28;20045;-82
2023/06/15 04:05:00;;;;;;;0.20;0.10;;;;;;;;;;5027604;28;20051;-81
2023/06/15 04:07:28;;;;;;;0.20;0.10;;;;;;;;;;5011718;28;20048;-82
2023/06/15 04:09:54;;;;;;;0.20;0.17;;;;;;;;;;5028902;28;20592;-81
2023/06/15 04:12:20;;;;;;;0.20;0.10;;;;;;;;;;5018150;28;20048;-82
2023/06/15 04:14:46;;;;;;;0.20;0.10;;;;;;;;;;5026806;28;20049;-83
2023/06/15 04:17:12;;;;;;;0.20;0.10;;;;;;;;;;5023403;28;20316;-82
2023/06/15 04:19:38;;;;;;;0.30;0.20;;;;;;;;;;5029059;28;20573;-82
2023/06/15 04:22:05;;;;;;;0.20;0.10;;;;;;;;;;5039022;28;20041;-81
2023/06/15 04:24:31;;;;;;;0.30;0.20;;;;;;;;;;5009870;28;20051;-81
2023/06/15 04:26:57;;;;;;;0.30;0.25;;;;;;;;;;5027366;28;20037;-81
2023/06/15 04:29:23;;;;;;;0.20;0.10;;;;;;;;;;5026195;28;20057;-82
2023/06/15 04:31:55;;;;;;;0.45;0.43;;;;;;;;;;5044949;28;20048;-83
2023/06/15 04:34:30;;;;;;;0.20;0.10;;;;;;;;;;5031597;28;20048;-82
2023/06/15 04:36:57;;;;;;;0.20;0.20;;;;;;;;;;5028570;28;20044;-82
2023/06/15 04:39:25;;;;;;;0.30;0.20;;;;;;;;;;5019816;28;20048;-81
2023/06/15 04:41:51;;;;;;;0.20;0.10;;;;;;;;;;5031178;28;20575;-84
2023/06/15 04:44:17;;;;;;;0.25;0.10;;;;;;;;;;5007786;28;20091;-81
2023/06/15 04:46:43;;;;;;;0.20;0.10;;;;;;;;;;5029777;28;20044;-83
2023/06/15 04:49:09;;;;;;;0.20;0.10;;;;;;;;;;5026367;28;21248;-82
2023/06/15 04:51:38;;;;;;;0.43;0.43;;;;;;;;;;5028912;28;20102;-81
2023/06/15 04:54:04;;;;;;;0.30;0.20;;;;;;;;;;5022078;28;20055;-83
2023/06/15 04:56:30;;;;;;;0.20;0.15;;;;;;;;;;5022908;28;20068;-82
2023/06/15 04:58:56;;;;;;;0.20;0.10;;;;;;;;;;5017238;28;21525;-82
2023/06/15 05:01:22;;;;;;;0.30;0.10;;;;;;;;;;5006867;28;20048;-81
2023/06/15 05:03:48;;;;;;;0.20;0.20;;;;;;;;;;5012034;28;22038;-82
2023/06/15 05:06:14;;;;;;;0.30;0.20;;;;;;;;;;5012970;28;20041;-83
2023/06/15 05:08:40;;;;;;;0.20;0.10;;;;;;;;;;5024452;28;20061;-81
2023/06/15 05:11:06;;;;;;;0.22;0.22;;;;;;;;;;5027254;28;20033;-83
2023/06/15 05:13:32;;;;;;;0.20;0.10;;;;;;;;;;5026094;28;20037;-82
2023/06/15 05:15:58;;;;;;;0.20;0.10;;;;;;;;;;5025496;28;20053;-81
2023/06/15 05:18:26;;;;;;;0.47;0.30;;;;;;;;;;5026441;28;20072;-80
2023/06/15 05:20:52;;;;;;;0.20;0.10;;;;;;;;;;5028731;28;20172;-83
2023/06/15 05:23:19;;;;;;;0.20;0.10;;;;;;;;;;5015055;28;20516;-81
2023/06/15 05:25:45;;;;;;;0.30;0.30;;;;;;;;;;5016314;28;20032;-81
2023/06/15 05:28:11;;;;;;;0.20;0.20;;;;;;;;;;5027696;28;20444;-81
2023/06/15 05:30:38;;;;;;;0.52;0.30;;;;;;;;;;5015517;23;20046;-80
2023/06/15 05:33:04;;;;;;;0.20;0.15;;;;;;;;;;4994151;28;20107;-78
2023/06/15 05:35:30;;;;;;;0.20;0.10;;;;;;;;;;4977754;28;20040;-80
2023/06/15 05:37:56;;;;;;;0.20;0.10;;;;;;;;;;4996092;28;20076;-79
2023/06/15 05:40:22;;;;;;;0.20;0.20;;;;;;;;;;4974914;28;20066;-78
2023/06/15 05:42:49;;;;;;;0.20;0.10;;;;;;;;;;4969533;28;20100;-79
2023/06/15 05:45:15;;;;;;;0.20;0.20;;;;;;;;;;4955535;28;20507;-79
2023/06/15 05:47:41;;;;;;;0.20;0.10;;;;;;;;;;4974207;28;20136;-80
2023/06/15 05:50:07;;;;;;;0.20;0.10;;;;;;;;;;4957121;28;20042;-80
2023/06/15 05:52:33;;;;;;;0.20;0.10;;;;;;;;;;4949251;28;20047;-79
2023/06/15 05:54:59;;;;;;;0.30;0.20;;;;;;;;;;4969099;28;20049;-80
2023/06/15 05:57:25;;;;;;;1.75;0.35;;;;;;;;;;4972371;28;20038;-79
2023/06/15 05:59:51;;;;;;;0.20;0.10;;;;;;;;;;4967607;28;20080;-78
2023/06/15 06:02:17;;;;;;;0.20;0.10;;;;;;;;;;4969934;28;20054;-78
2023/06/15 06:04:43;;;;;;;0.20;0.10;;;;;;;;;;4972523;28;20044;-78
2023/06/15 06:07:10;;;;;;;0.25;0.10;;;;;;;;;;4986065;28;20069;-78
2023/06/15 06:09:37;;;;;;;0.20;0.10;;;;;;;;;;4961064;28;20039;-78
2023/06/15 06:12:03;;;;;;;0.20;0.10;;;;;;;;;;4976632;28;20047;-78
2023/06/15 06:14:29;;;;;;;0.20;0.20;;;;;;;;;;4969250;28;20038;-77
2023/06/15 06:16:56;;;;;;;0.20;0.10;;;;;;;;;;4977836;28;20053;-81
2023/06/15 06:19:23;;;;;;;0.20;0.10;;;;;;;;;;4946293;28;20026;-78
2023/06/15 06:21:49;;;;;;;0.52;0.20;;;;;;;;;;4970428;28;20042;-79
2023/06/15 06:24:15;;;;;;;0.43;0.30;;;;;;;;;;4974070;28;20050;-78
2023/06/15 06:26:41;;;;;;;0.30;0.15;;;;;;;;;;4978115;28;20038;-78
2023/06/15 06:29:07;;;;;;;0.20;0.10;;;;;;;;;;4976006;28;20034;-79
2023/06/15 06:31:34;;;;;;;0.20;0.10;;;;;;;;;;4970834;28;20070;-78
2023/06/15 06:34:00;;;;;;;0.20;0.10;;;;;;;;;;4963084;28;20038;-78
2023/06/15 06:36:26;;;;;;;0.20;0.20;;;;;;;;;;4962746;28;20054;-78
2023/06/15 06:38:53;;;;;;;0.20;0.10;;;;;;;;;;4983989;28;20039;-79
2023/06/15 06:41:19;;;;;;;0.63;0.30;;;;;;;;;;4957757;28;20046;-79
2023/06/15 06:43:45;;;;;;;0.20;0.10;;;;;;;;;;4974937;28;20046;-78
2023/06/15 06:46:13;;;;;;;0.20;0.10;;;;;;;;;;4972836;28;20062;-78
2023/06/15 06:48:39;;;;;;;0.20;0.10;;;;;;;;;;4975308;28;20038;-79
2023/06/15 06:51:05;;;;;;;0.20;0.10;;;;;;;;;;4960347;28;20136;-78
2023/06/15 06:53:31;;;;;;;0.20;0.10;;;;;;;;;;4955050;28;20042;-78
2023/06/15 06:55:57;;;;;;;0.20;0.10;;;;;;;;;;4971069;28;20572;-77
2023/06/15 06:58:23;;;;;;;0.20;0.10;;;;;;;;;;4979913;28;20042;-80
2023/06/15 07:00:49;;;;;;;0.30;0.10;;;;;;;;;;4979569;28;20739;-78
2023/06/15 07:03:15;;;;;;;0.20;0.10;;;;;;;;;;4974682;28;20725;-78
2023/06/15 07:05:41;;;;;;;1.10;0.47;;;;;;;;;;4970990;28;20046;-79
2023/06/15 07:08:07;;;;;;;0.20;0.10;;;;;;;;;;4946041;28;20054;-77
2023/06/15 07:10:33;;;;;;;0.20;0.10;;;;;;;;;;4968216;28;20043;-77
2023/06/15 07:12:59;;;;;;;0.32;0.20;;;;;;;;;;4948039;28;20038;-77
2023/06/15 07:15:27;;;;;;;0.20;0.10;;;;;;;;;;4959913;28;20066;-78
2023/06/15 07:17:53;;;;;;;0.20;0.20;;;;;;;;;;4974472;28;20043;-78
2023/06/15 07:20:19;;;;;;;0.20;0.10;;;;;;;;;;4960275;28;20515;-80
2023/06/15 07:22:45;;;;;;;0.20;0.10;;;;;;;;;;4972847;28;20054;-82
2023/06/15 07:25:12;;;;;;;0.20;0.10;;;;;;;;;;4959090;28;20042;-80
2023/06/15 07:27:38;;;;;;;0.20;0.10;;;;;;;;;;4976048;28;20610;-80
2023/06/15 07:30:04;;;;;;;0.20;0.10;;;;;;;;;;4974428;28;20041;-78
2023/06/15 07:32:30;;;;;;;0.20;0.10;;;;;;;;;;4978930;28;20046;-77
2023/06/15 07:34:56;;;;;;;0.20;0.10;;;;;;;;;;4964591;28;20046;-80
2023/06/15 07:37:22;;;;;;;0.60;0.30;;;;;;;;;;4958992;28;22264;-79
2023/06/15 07:39:48;;;;;;;0.20;0.13;;;;;;;;;;4978131;28;20087;-79
2023/06/15 07:42:15;;;;;;;0.20;0.10;;;;;;;;;;4965308;28;20049;-77
2023/06/15 07:44:41;;;;;;;0.20;0.13;;;;;;;;;;4973366;28;20454;-79
2023/06/15 07:47:08;;;;;;;0.43;0.30;;;;;;;;;;4973547;28;20049;-78
2023/06/15 07:49:34;;;;;;;0.20;0.10;;;;;;;;;;4961487;28;20077;-79
2023/06/15 07:52:00;;;;;;;0.25;0.20;;;;;;;;;;4960045;28;20373;-79
2023/06/15 07:54:26;;;;;;;0.20;0.10;;;;;;;;;;4980434;28;20038;-78
2023/06/15 07:56:52;;;;;;;0.20;0.10;;;;;;;;;;4980611;28;20042;-78
2023/06/15 07:59:18;;;;;;;0.32;0.10;;;;;;;;;;4969944;28;20054;-82
2023/06/15 08:01:44;;;;;;;0.20;0.10;;;;;;;;;;4964495;28;20038;-78
2023/06/15 08:04:10;;;;;;;0.20;0.10;;;;;;;;;;4975297;28;20049;-78
2023/06/15 08:06:39;;;;;;;0.20;0.10;;;;;;;;;;4952245;28;20377;-85
2023/06/15 08:09:07;;;;;;;0.20;0.15;;;;;;;;;;4960863;28;20065;-78
2023/06/15 08:11:33;;;;;;;0.20;0.10;;;;;;;;;;4974788;28;20047;-78
2023/06/15 08:13:59;;;;;;;0.20;0.10;;;;;;;;;;4962856;28;20034;-78
2023/06/15 08:16:25;;;;;;;0.20;0.10;;;;;;;;;;4975201;28;20526;-78
2023/06/15 08:18:50;;;;;;;0.20;0.10;;;;;;;;;;4980008;28;20042;-79
2023/06/15 08:21:17;;;;;;;0.20;0.10;;;;;;;;;;4954800;28;20053;-83
2023/06/15 08:23:43;;;;;;;0.30;0.30;;;;;;;;;;4976014;28;20091;-78
2023/06/15 08:26:09;;;;;;;0.20;0.10;;;;;;;;;;4976971;28;20034;-79
2023/06/15 08:28:35;;;;;;;0.20;0.10;;;;;;;;;;4956624;28;20053;-78
2023/06/15 08:31:03;;;;;;;0.30;0.28;;;;;;;;;;4976532;28;20422;-82
2023/06/15 08:33:29;;;;;;;0.65;0.30;;;;;;;;;;4974424;28;20046;-79
2023/06/15 08:35:56;;;;;;;0.20;0.08;;;;;;;;;;4980481;28;20042;-79
2023/06/15 08:38:22;;;;;;;0.20;0.10;;;;;;;;;;4967557;28;20112;-78
2023/06/15 08:40:48;;;;;;;0.40;0.20;;;;;;;;;;4956995;28;20485;-81
2023/06/15 08:43:16;;;;;;;0.20;0.10;;;;;;;;;;4957924;28;20058;-79
2023/06/15 08:45:43;;;;;;;0.20;0.10;;;;;;;;;;4955400;28;20430;-83
2023/06/15 08:48:14;;;;;;;0.20;0.10;;;;;;;;;;4975742;28;20053;-82
2023/06/15 08:50:41;;;;;;;1.03;0.20;;;;;;;;;;4976907;28;20046;-80
2023/06/15 08:53:08;;;;;;;0.20;0.10;;;;;;;;;;4965117;28;20635;-82
2023/06/15 08:55:37;;;;;;;0.20;0.10;;;;;;;;;;4978865;28;20439;-80
2023/06/15 08:58:07;;;;;;;0.20;0.10;;;;;;;;;;4980108;28;20042;-81
2023/06/15 09:00:33;;;;;;;0.20;0.10;;;;;;;;;;4970001;28;20145;-79
2023/06/15 09:03:00;;;;;;;0.20;0.10;;;;;;;;;;4975960;28;20226;-80
2023/06/15 09:05:26;;;;;;;0.20;0.10;;;;;;;;;;4976936;28;20604;-87
2023/06/15 09:07:53;;;;;;;0.20;0.10;;;;;;;;;;4980283;28;21515;-79
2023/06/15 09:10:22;;;;;;;0.20;0.10;;;;;;;;;;4975080;28;20169;-81
2023/06/15 09:12:52;;;;;;;0.20;0.10;;;;;;;;;;4977134;28;21410;-78
2023/06/15 09:15:20;;;;;;;0.20;0.10;;;;;;;;;;4969455;28;20125;-79
2023/06/15 09:17:46;;;;;;;0.20;0.20;;;;;;;;;;4982147;28;20050;-78
2023/06/15 09:20:14;;;;;;;0.20;0.10;;;;;;;;;;4973900;28;20042;-79
2023/06/15 09:22:41;;;;;;;0.20;0.10;;;;;;;;;;4983760;28;20418;-80
2023/06/15 09:25:11;;;;;;;0.20;0.10;;;;;;;;;;4979493;28;20042;-81
2023/06/15 09:27:37;;;;;;;0.20;0.20;;;;;;;;;;4980397;28;20046;-76
2023/06/15 09:30:05;;;;;;;0.20;0.10;;;;;;;;;;4978693;28;20038;-78
2023/06/15 09:32:31;;;;;;;0.75;0.30;;;;;;;;;;4976406;28;20060;-77
2023/06/15 09:35:01;;;;;;;0.22;0.22;;;;;;;;;;4976607;28;20082;-78
2023/06/15 09:37:27;;;;;;;0.20;0.10;;;;;;;;;;4961793;28;20038;-78
2023/06/15 09:39:54;;;;;;;0.20;0.10;;;;;;;;;;4980717;28;20042;-77
2023/06/15 09:42:29;;;;;;;0.20;0.10;;;;;;;;;;4959122;28;20042;-78
2023/06/15 09:45:03;;;;;;;0.50;0.30;;;;;;;;;;4980407;28;20043;-77
2023/06/15 09:47:29;;;;;;;0.20;0.10;;;;;;;;;;4979215;28;20451;-79
2023/06/15 09:49:55;;;;;;;0.20;0.20;;;;;;;;;;4980802;28;20448;-78
2023/06/15 09:52:22;;;;;;;0.20;0.17;;;;;;;;;;4964389;28;20057;-78
2023/06/15 09:54:48;;;;;;;0.20;0.10;;;;;;;;;;4969950;28;20116;-80
2023/06/15 09:57:19;;;;;;;0.30;0.30;;;;;;;;;;4974058;28;20665;-79
2023/06/15 09:59:48;;;;;;;0.20;0.10;;;;;;;;;;4962812;28;20034;-79
2023/06/15 10:02:19;;;;;;;0.20;0.10;;;;;;;;;;4980063;28;20058;-79
2023/06/15 10:04:46;;;;;;;0.47;0.27;;;;;;;;;;4979945;28;20034;-78
2023/06/15 10:07:13;;;;;;;0.20;0.10;;;;;;;;;;4972909;28;20594;-81
2023/06/15 10:09:49;;;;;;;0.20;0.10;;;;;;;;;;4977350;28;20792;-78
2023/06/15 10:12:16;;;;;;;0.20;0.10;;;;;;;;;;4956659;28;20264;-78
2023/06/15 10:14:42;;;;;;;0.20;0.10;;;;;;;;;;4979034;28;20042;-79
2023/06/15 10:17:09;;;;;;;0.20;0.20;;;;;;;;;;4981268;28;20057;-77
2023/06/15 10:19:38;;;;;;;0.20;0.15;;;;;;;;;;4982095;28;20065;-79
2023/06/15 10:22:07;;;;;;;0.20;0.10;;;;;;;;;;4981752;28;20112;-78
2023/06/15 10:24:34;;;;;;;0.52;0.17;;;;;;;;;;4973227;28;20077;-78
2023/06/15 10:27:01;;;;;;;0.20;0.10;;;;;;;;;;4963709;28;20062;-84
2023/06/15 10:29:33;;;;;;;0.70;0.20;;;;;;;;;;4979326;28;20050;-81
2023/06/15 10:32:02;;;;;;;0.30;0.28;;;;;;;;;;4994055;28;20423;-78
2023/06/15 10:34:31;;;;;;;0.20;0.10;;;;;;;;;;4977427;28;20895;-80
2023/06/15 10:37:02;;;;;;;0.20;0.10;;;;;;;;;;4981822;28;20058;-79
2023/06/15 10:39:31;;;;;;;0.20;0.10;;;;;;;;;;4980129;28;20519;-77
2023/06/15 10:41:57;;;;;;;0.20;0.10;;;;;;;;;;4974557;28;20281;-78
2023/06/15 10:44:31;;;;;;;0.20;0.20;;;;;;;;;;4976387;28;20038;-79
2023/06/15 10:47:07;;;;;;;0.20;0.10;;;;;;;;;;4982215;28;20133;-78
2023/06/15 10:49:33;;;;;;;0.20;0.10;;;;;;;;;;4980994;28;20355;-77
2023/06/15 10:52:00;;;;;;;0.82;0.25;;;;;;;;;;4985008;28;20108;-78
2023/06/15 10:54:27;;;;;;;0.20;0.10;;;;;;;;;;4978102;28;20440;-79
2023/06/15 10:56:55;;;;;;;0.30;0.20;;;;;;;;;;4984400;28;20042;-78
2023/06/15 10:59:37;;;;;;;0.30;0.22;;;;;;;;;;4962455;28;20046;-78
2023/06/15 11:02:03;;;;;;;0.20;0.10;;;;;;;;;;4965403;28;20047;-78
2023/06/15 11:04:30;;;;;;;0.20;0.10;;;;;;;;;;4980616;28;20034;-78
2023/06/15 11:06:57;;;;;;;0.20;0.15;;;;;;;;;;4981800;28;20093;-78
2023/06/15 11:09:25;;;;;;;0.25;0.10;;;;;;;;;;4963612;28;20517;-77
2023/06/15 11:11:51;;;;;;;0.20;0.10;;;;;;;;;;4955969;28;20050;-79
2023/06/15 11:14:20;;;;;;;0.20;0.10;;;;;;;;;;4976940;28;20046;-77
2023/06/15 11:16:46;;;;;;;0.20;0.10;;;;;;;;;;4978332;28;20187;-78
2023/06/15 11:19:12;;;;;;;0.30;0.20;;;;;;;;;;4973706;28;20046;-82
2023/06/15 11:21:42;;;;;;;0.20;0.10;;;;;;;;;;4975516;28;20549;-79
2023/06/15 11:24:13;;;;;;;0.20;0.10;;;;;;;;;;4974543;28;20042;-80
2023/06/15 11:26:43;;;;;;;0.30;0.30;;;;;;;;;;4964554;28;20133;-77
2023/06/15 11:29:12;;;;;;;0.65;0.30;;;;;;;;;;5042141;23;20045;-84
2023/06/15 11:31:40;;;;;;;0.20;0.10;;;;;;;;;;4985291;28;20045;-83
2023/06/15 11:34:09;;;;;;;0.43;0.17;;;;;;;;;;4995584;28;20038;-81
2023/06/15 11:36:36;;;;;;;0.20;0.20;;;;;;;;;;4984921;28;20501;-85
2023/06/15 11:39:04;;;;;;;0.20;0.20;;;;;;;;;;4996477;28;20154;-80
2023/06/15 11:41:30;;;;;;;0.20;0.10;;;;;;;;;;4985906;28;20705;-84
2023/06/15 11:43:57;;;;;;;0.68;0.20;;;;;;;;;;4998574;28;20037;-82
2023/06/15 11:46:24;;;;;;;0.20;0.10;;;;;;;;;;4979639;28;20652;-84
2023/06/15 11:48:54;;;;;;;0.20;0.10;;;;;;;;;;4985613;28;20430;-83
2023/06/15 11:51:20;;;;;;;0.30;0.20;;;;;;;;;;4985750;28;21237;-82
2023/06/15 11:53:47;;;;;;;0.20;0.10;;;;;;;;;;4991528;28;20516;-83
2023/06/15 11:56:17;;;;;;;0.20;0.10;;;;;;;;;;4990213;28;20079;-85
2023/06/15 11:58:47;;;;;;;1.00;0.10;;;;;;;;;;4984531;28;20036;-84
2023/06/15 12:01:14;;;;;;;0.20;0.10;;;;;;;;;;4985296;28;20042;-82
2023/06/15 12:03:47;;;;;;;0.30;0.20;;;;;;;;;;5003560;28;20356;-84
2023/06/15 12:06:17;;;;;;;0.22;0.20;;;;;;;;;;4999149;28;20604;-84
2023/06/15 12:08:44;;;;;;;0.20;0.10;;;;;;;;;;4984818;28;20120;-83
2023/06/15 12:11:11;;;;;;;0.20;0.10;;;;;;;;;;4998607;28;20042;-84
2023/06/15 12:13:40;;;;;;;0.20;0.13;;;;;;;;;;4996629;28;20087;-86
2023/06/15 12:16:07;;;;;;;0.20;0.20;;;;;;;;;;4988775;28;20072;-84
2023/06/15 12:18:35;;;;;;;0.35;0.20;;;;;;;;;;4987720;28;20064;-80
2023/06/15 12:21:03;;;;;;;0.20;0.10;;;;;;;;;;4985875;28;20046;-86
2023/06/15 12:23:30;;;;;;;0.30;0.20;;;;;;;;;;5004331;28;20427;-83
2023/06/15 12:25:57;;;;;;;0.20;0.20;;;;;;;;;;4998486;28;20657;-88
2023/06/15 12:28:24;;;;;;;0.20;0.10;;;;;;;;;;4993884;28;20494;-84
2023/06/15 12:30:50;;;;;;;0.20;0.10;;;;;;;;;;5003507;28;20048;-87
2023/06/15 12:33:30;;;;;;;0.20;0.10;;;;;;;;;;4993666;28;20069;-82
2023/06/15 12:35:56;;;;;;;0.20;0.20;;;;;;;;;;5012673;28;20044;-84
2023/06/15 12:38:26;;;;;;;0.20;0.10;;;;;;;;;;5017233;28;20037;-82
2023/06/15 12:40:56;;;;;;;0.20;0.10;;;;;;;;;;5018100;28;20528;-84
2023/06/15 12:43:22;;;;;;;0.30;0.10;;;;;;;;;;5013974;28;20033;-83
2023/06/15 12:45:48;;;;;;;0.20;0.10;;;;;;;;;;4999811;28;20033;-82
2023/06/15 12:48:15;;;;;;;0.20;0.20;;;;;;;;;;4997340;28;20056;-84
2023/06/15 12:50:41;;;;;;;0.20;0.20;;;;;;;;;;4997477;28;20042;-83
2023/06/15 12:53:07;;;;;;;0.20;0.17;;;;;;;;;;5012676;28;20080;-81
2023/06/15 12:55:33;;;;;;;0.35;0.15;;;;;;;;;;5012344;28;20049;-85
2023/06/15 12:57:59;;;;;;;0.20;0.10;;;;;;;;;;5012699;28;20075;-85
2023/06/15 13:00:26;;;;;;;0.20;0.10;;;;;;;;;;5009762;28;20032;-84
2023/06/15 13:02:53;;;;;;;0.20;0.10;;;;;;;;;;4997979;28;20034;-84
2023/06/15 13:05:21;;;;;;;0.20;0.10;;;;;;;;;;5016262;28;20075;-85
2023/06/15 13:07:53;;;;;;;0.30;0.20;;;;;;;;;;4999013;28;20037;-86
2023/06/15 13:10:19;;;;;;;0.43;0.22;;;;;;;;;;5005777;28;20132;-82
2023/06/15 13:12:46;;;;;;;0.20;0.10;;;;;;;;;;4994510;28;20103;-84
2023/06/15 13:15:12;;;;;;;0.32;0.30;;;;;;;;;;5010361;28;20101;-80
2023/06/15 13:17:41;;;;;;;0.20;0.10;;;;;;;;;;4999990;28;20124;-84
2023/06/15 13:20:08;;;;;;;0.20;0.10;;;;;;;;;;5012087;28;20041;-83
2023/06/15 13:22:37;;;;;;;0.20;0.10;;;;;;;;;;5000288;28;20041;-82
2023/06/15 13:25:06;;;;;;;0.20;0.10;;;;;;;;;;5000911;28;20043;-84
2023/06/15 13:27:37;;;;;;;0.28;0.13;;;;;;;;;;5002774;28;20094;-84
2023/06/15 13:30:04;;;;;;;0.20;0.20;;;;;;;;;;5010132;28;20056;-87
2023/06/15 13:32:30;;;;;;;0.25;0.15;;;;;;;;;;4986564;28;20721;-83
2023/06/15 13:34:56;;;;;;;0.20;0.10;;;;;;;;;;4984306;28;20132;-87
2023/06/15 13:37:22;;;;;;;0.20;0.10;;;;;;;;;;4984346;28;20041;-85
2023/06/15 13:39:48;;;;;;;0.25;0.25;;;;;;;;;;5001570;28;20072;-83
2023/06/15 13:42:14;;;;;;;0.73;0.32;;;;;;;;;;5001597;28;20056;-85
2023/06/15 13:44:40;;;;;;;0.20;0.15;;;;;;;;;;4982363;28;20038;-83
2023/06/15 13:47:06;;;;;;;0.20;0.20;;;;;;;;;;4979861;28;20046;-86
2023/06/15 13:49:32;;;;;;;0.20;0.20;;;;;;;;;;4981184;28;20067;-83
2023/06/15 13:51:59;;;;;;;0.20;0.10;;;;;;;;;;4993572;28;20164;-83
2023/06/15 13:54:25;;;;;;;0.20;0.10;;;;;;;;;;4989834;28;20068;-82
2023/06/15 13:56:52;;;;;;;0.20;0.10;;;;;;;;;;4996018;28;20064;-84
2023/06/15 13:59:21;;;;;;;0.50;0.25;;;;;;;;;;4979011;28;20037;-80
2023/06/15 14:01:47;;;;;;;0.20;0.00;;;;;;;;;;4991822;28;20148;-81
2023/06/15 14:04:13;;;;;;;0.30;0.28;;;;;;;;;;4993298;28;20117;-83
2023/06/15 14:06:39;;;;;;;0.30;0.20;;;;;;;;;;4981563;28;20176;-83
2023/06/15 14:09:05;;;;;;;0.20;0.20;;;;;;;;;;4999911;28;20101;-81
2023/06/15 14:11:31;;;;;;;0.22;0.22;;;;;;;;;;4986118;28;20042;-81
2023/06/15 14:13:58;;;;;;;0.20;0.10;;;;;;;;;;4993831;28;20044;-84
2023/06/15 14:16:24;;;;;;;0.20;0.10;;;;;;;;;;4973535;28;20101;-83
2023/06/15 14:18:50;;;;;;;0.20;0.10;;;;;;;;;;5018343;28;20037;-83
2023/06/15 14:21:16;;;;;;;0.73;0.20;;;;;;;;;;4997489;28;20612;-82
2023/06/15 14:23:42;;;;;;;0.28;0.17;;;;;;;;;;4999714;28;20057;-83
2023/06/15 14:26:09;;;;;;;0.30;0.10;;;;;;;;;;4972441;28;20048;-85
2023/06/15 14:28:35;;;;;;;0.55;0.20;;;;;;;;;;4977041;28;20152;-83
2023/06/15 14:31:07;;;;;;;0.20;0.20;;;;;;;;;;4979227;28;20454;-84
2023/06/15 14:33:33;;;;;;;0.20;0.10;;;;;;;;;;4987760;28;20038;-83
2023/06/15 14:35:59;;;;;;;0.20;0.10;;;;;;;;;;4993941;28;20044;-83
2023/06/15 14:38:25;;;;;;;0.20;0.10;;;;;;;;;;4974518;28;20473;-84
2023/06/15 14:40:51;;;;;;;0.20;0.20;;;;;;;;;;4992225;28;20044;-84
2023/06/15 14:43:17;;;;;;;0.20;0.10;;;;;;;;;;4984006;28;20077;-83